createdAt,value
2022-10-18T00:00:04.765Z,99
2022-10-18T00:01:04.817Z,99
2022-10-18T00:02:04.860Z,99
2022-10-18T00:03:04.778Z,98
2022-10-18T00:04:04.779Z,98
2022-10-18T00:05:04.773Z,98
2022-10-18T00:06:04.760Z,98
2022-10-18T00:07:04.803Z,98
2022-10-18T00:08:04.777Z,98
2022-10-18T00:09:04.789Z,98
2022-10-18T00:10:04.799Z,98
2022-10-18T00:11:04.783Z,98
2022-10-18T00:12:04.837Z,98
2022-10-18T00:13:04.805Z,98
2022-10-18T00:14:04.793Z,98
2022-10-18T00:15:04.790Z,98
2022-10-18T00:16:04.815Z,98
2022-10-18T00:17:04.841Z,98
2022-10-18T00:18:04.814Z,98
2022-10-18T00:19:04.811Z,98
2022-10-18T00:20:04.842Z,98
2022-10-18T00:21:04.815Z,98
2022-10-18T00:22:04.810Z,98
2022-10-18T00:23:04.840Z,98
2022-10-18T00:24:04.820Z,98
2022-10-18T00:25:04.864Z,99
2022-10-18T00:26:04.828Z,99
2022-10-18T00:27:04.855Z,99
2022-10-18T00:28:04.854Z,99
2022-10-18T00:29:04.840Z,99
2022-10-18T00:30:04.841Z,99
2022-10-18T00:31:04.838Z,99
2022-10-18T00:32:04.843Z,99
2022-10-18T00:33:04.869Z,99
2022-10-18T00:34:04.878Z,99
2022-10-18T00:35:04.870Z,99
2022-10-18T00:36:04.889Z,98
2022-10-18T00:37:05.040Z,98
2022-10-18T00:38:04.901Z,99
2022-10-18T00:39:04.877Z,99
2022-10-18T00:40:04.878Z,99
2022-10-18T00:41:04.923Z,99
2022-10-18T00:42:04.903Z,99
2022-10-18T00:43:04.896Z,99
2022-10-18T00:44:04.875Z,99
2022-10-18T00:45:04.879Z,99
2022-10-18T00:46:04.889Z,99
2022-10-18T00:47:04.882Z,99
2022-10-18T00:48:04.932Z,99
2022-10-18T00:49:04.932Z,99
2022-10-18T00:50:04.897Z,99
2022-10-18T00:51:04.904Z,99
2022-10-18T00:52:04.905Z,99
2022-10-18T00:53:04.948Z,99
2022-10-18T00:54:04.907Z,99
2022-10-18T00:55:04.925Z,99
2022-10-18T00:56:04.918Z,99
2022-10-18T00:57:05.108Z,99
2022-10-18T00:58:04.950Z,99
2022-10-18T00:59:04.920Z,99
2022-10-18T01:00:04.916Z,99
2022-10-18T01:01:04.952Z,99
2022-10-18T01:02:05.008Z,99
2022-10-18T01:03:04.940Z,99
2022-10-18T01:04:04.929Z,99
2022-10-18T01:05:04.951Z,98
2022-10-18T01:06:04.923Z,98
2022-10-18T01:07:04.954Z,98
2022-10-18T01:08:04.957Z,98
2022-10-18T01:09:04.945Z,99
2022-10-18T01:10:04.935Z,99
2022-10-18T01:11:04.927Z,99
2022-10-18T01:12:04.936Z,99
2022-10-18T01:13:04.949Z,99
2022-10-18T01:14:04.941Z,99
2022-10-18T01:15:04.948Z,99
2022-10-18T01:16:04.936Z,99
2022-10-18T01:17:04.963Z,99
2022-10-18T01:18:04.975Z,99
2022-10-18T01:19:04.949Z,99
2022-10-18T01:20:04.966Z,99
2022-10-18T01:21:04.974Z,99
2022-10-18T01:22:04.975Z,99
2022-10-18T01:23:05.017Z,99
2022-10-18T01:24:04.980Z,99
2022-10-18T01:25:04.987Z,99
2022-10-18T01:26:04.976Z,99
2022-10-18T01:27:04.971Z,99
2022-10-18T01:28:04.980Z,99
2022-10-18T01:29:05.049Z,99
2022-10-18T01:30:05.002Z,99
2022-10-18T01:31:04.979Z,99
2022-10-18T01:32:04.994Z,99
2022-10-18T01:33:05.000Z,99
2022-10-18T01:34:05.013Z,99
2022-10-18T01:35:04.996Z,99
2022-10-18T01:36:04.978Z,99
2022-10-18T01:37:05.017Z,99
2022-10-18T01:38:04.996Z,99
2022-10-18T01:39:04.993Z,99
2022-10-18T01:40:05.013Z,99
2022-10-18T01:41:05.018Z,99
2022-10-18T01:42:04.999Z,99
2022-10-18T01:44:05.008Z,99
2022-10-18T01:45:05.008Z,99
2022-10-18T01:46:05.001Z,99
2022-10-18T01:47:05.001Z,99
2022-10-18T01:48:05.012Z,99
2022-10-18T01:49:05.004Z,99
2022-10-18T01:50:05.005Z,99
2022-10-18T01:51:05.022Z,99
2022-10-18T01:52:05.073Z,99
2022-10-18T01:53:05.063Z,99
2022-10-18T01:54:05.017Z,99
2022-10-18T01:55:05.014Z,99
2022-10-18T01:56:05.019Z,99
2022-10-18T01:57:05.034Z,99
2022-10-18T01:58:05.055Z,99
2022-10-18T01:59:05.036Z,99
2022-10-18T02:00:05.029Z,99
2022-10-18T02:01:05.102Z,99
2022-10-18T02:02:05.058Z,99
2022-10-18T02:03:05.064Z,99
2022-10-18T02:04:05.045Z,99
2022-10-18T02:05:05.054Z,99
2022-10-18T02:06:05.041Z,99
2022-10-18T02:07:05.059Z,99
2022-10-18T02:08:12.463Z,99
2022-10-18T02:09:05.068Z,99
2022-10-18T02:10:05.106Z,99
2022-10-18T02:11:05.063Z,99
2022-10-18T02:12:05.105Z,99
2022-10-18T02:13:05.105Z,99
2022-10-18T02:14:05.074Z,99
2022-10-18T02:15:05.068Z,99
2022-10-18T02:16:05.078Z,99
2022-10-18T02:17:05.073Z,99
2022-10-18T02:18:05.090Z,99
2022-10-18T02:19:05.077Z,99
2022-10-18T02:20:05.071Z,99
2022-10-18T02:21:05.064Z,99
2022-10-18T02:22:05.086Z,99
2022-10-18T02:23:05.089Z,99
2022-10-18T02:24:05.080Z,99
2022-10-18T02:25:05.104Z,99
2022-10-18T02:26:05.075Z,99
2022-10-18T02:27:05.097Z,99
2022-10-18T02:28:05.103Z,99
2022-10-18T02:29:05.096Z,99
2022-10-18T02:30:05.090Z,99
2022-10-18T02:31:05.099Z,99
2022-10-18T02:32:05.098Z,98
2022-10-18T02:33:05.107Z,98
2022-10-18T02:34:05.132Z,98
2022-10-18T02:35:05.110Z,98
2022-10-18T02:36:05.113Z,98
2022-10-18T02:37:05.109Z,98
2022-10-18T02:38:05.129Z,98
2022-10-18T02:39:05.115Z,98
2022-10-18T02:40:05.107Z,98
2022-10-18T02:41:05.146Z,98
2022-10-18T02:42:05.111Z,98
2022-10-18T02:43:05.125Z,98
2022-10-18T02:44:05.105Z,98
2022-10-18T02:45:05.148Z,98
2022-10-18T02:46:05.131Z,98
2022-10-18T02:47:05.139Z,98
2022-10-18T02:48:05.145Z,98
2022-10-18T02:49:05.128Z,98
2022-10-18T02:50:05.146Z,98
2022-10-18T02:51:05.139Z,98
2022-10-18T02:52:05.135Z,98
2022-10-18T02:53:05.154Z,98
2022-10-18T02:54:05.140Z,98
2022-10-18T02:55:05.162Z,98
2022-10-18T02:56:05.144Z,98
2022-10-18T02:57:05.173Z,98
2022-10-18T02:58:05.164Z,98
2022-10-18T02:59:05.153Z,98
2022-10-18T03:00:05.351Z,98
2022-10-18T03:01:05.136Z,98
2022-10-18T03:02:05.155Z,98
2022-10-18T03:03:05.170Z,98
2022-10-18T03:04:05.191Z,98
2022-10-18T03:05:05.177Z,98
2022-10-18T03:06:05.181Z,98
2022-10-18T03:07:05.161Z,98
2022-10-18T03:08:05.181Z,98
2022-10-18T03:09:05.180Z,98
2022-10-18T03:10:05.210Z,98
2022-10-18T03:11:05.191Z,98
2022-10-18T03:12:05.203Z,98
2022-10-18T03:13:05.210Z,98
2022-10-18T03:14:05.195Z,98
2022-10-18T03:15:05.208Z,98
2022-10-18T03:16:05.193Z,98
2022-10-18T03:17:05.208Z,98
2022-10-18T03:18:05.196Z,98
2022-10-18T03:19:05.194Z,98
2022-10-18T03:20:05.188Z,98
2022-10-18T03:21:05.194Z,98
2022-10-18T03:22:05.195Z,98
2022-10-18T03:23:05.213Z,98
2022-10-18T03:24:05.236Z,98
2022-10-18T03:25:05.217Z,98
2022-10-18T03:26:05.225Z,98
2022-10-18T03:27:05.227Z,98
2022-10-18T03:28:05.261Z,98
2022-10-18T03:29:05.311Z,98
2022-10-18T03:30:05.247Z,98
2022-10-18T03:31:05.229Z,98
2022-10-18T03:32:05.223Z,98
2022-10-18T03:33:05.275Z,98
2022-10-18T03:34:05.244Z,98
2022-10-18T03:35:05.228Z,98
2022-10-18T03:36:05.219Z,98
2022-10-18T03:37:05.515Z,98
2022-10-18T03:38:05.242Z,98
2022-10-18T03:39:05.231Z,98
2022-10-18T03:40:05.236Z,98
2022-10-18T03:41:05.285Z,98
2022-10-18T03:42:05.261Z,98
2022-10-18T03:43:05.262Z,98
2022-10-18T03:44:05.263Z,98
2022-10-18T03:45:05.289Z,98
2022-10-18T03:46:05.259Z,98
2022-10-18T03:47:05.273Z,98
2022-10-18T03:48:05.311Z,98
2022-10-18T03:49:05.272Z,98
2022-10-18T03:50:05.296Z,98
2022-10-18T03:51:05.276Z,98
2022-10-18T03:52:05.310Z,98
2022-10-18T03:53:05.321Z,98
2022-10-18T03:54:05.294Z,98
2022-10-18T03:55:05.315Z,98
2022-10-18T03:56:05.289Z,98
2022-10-18T03:57:05.287Z,98
2022-10-18T03:58:05.325Z,98
2022-10-18T03:59:05.308Z,98
2022-10-18T04:00:05.300Z,97
2022-10-18T04:01:05.328Z,97
2022-10-18T04:02:05.343Z,97
2022-10-18T04:03:05.317Z,97
2022-10-18T04:04:05.290Z,97
2022-10-18T04:05:05.320Z,97
2022-10-18T04:06:05.319Z,97
2022-10-18T04:07:05.316Z,97
2022-10-18T04:08:05.351Z,97
2022-10-18T04:09:06.569Z,97
2022-10-18T04:10:05.323Z,97
2022-10-18T04:11:05.334Z,97
2022-10-18T04:12:05.312Z,97
2022-10-18T04:13:05.333Z,97
2022-10-18T04:14:05.325Z,97
2022-10-18T04:15:05.313Z,97
2022-10-18T04:16:05.323Z,97
2022-10-18T04:17:05.358Z,97
2022-10-18T04:18:05.368Z,97
2022-10-18T04:19:05.359Z,97
2022-10-18T04:20:05.352Z,97
2022-10-18T04:21:05.347Z,97
2022-10-18T04:22:05.371Z,97
2022-10-18T04:23:05.373Z,97
2022-10-18T04:24:05.353Z,97
2022-10-18T04:25:05.391Z,97
2022-10-18T04:26:05.372Z,97
2022-10-18T04:27:05.379Z,97
2022-10-18T04:28:05.399Z,97
2022-10-18T04:29:05.423Z,97
2022-10-18T04:30:05.703Z,97
2022-10-18T04:31:05.407Z,97
2022-10-18T04:32:05.414Z,97
2022-10-18T04:33:05.424Z,97
2022-10-18T04:34:05.418Z,97
2022-10-18T04:35:05.492Z,97
2022-10-18T04:36:05.421Z,97
2022-10-18T04:37:05.440Z,97
2022-10-18T04:38:05.448Z,97
2022-10-18T04:39:05.423Z,97
2022-10-18T04:40:05.421Z,97
2022-10-18T04:41:05.419Z,97
2022-10-18T04:42:05.405Z,97
2022-10-18T04:43:05.454Z,97
2022-10-18T04:44:05.405Z,97
2022-10-18T04:45:05.409Z,97
2022-10-18T04:46:05.441Z,97
2022-10-18T04:47:05.421Z,97
2022-10-18T04:48:05.441Z,97
2022-10-18T04:49:05.421Z,97
2022-10-18T04:50:05.456Z,97
2022-10-18T04:51:05.452Z,97
2022-10-18T04:52:05.426Z,97
2022-10-18T04:53:05.452Z,97
2022-10-18T04:54:05.434Z,97
2022-10-18T04:55:05.438Z,97
2022-10-18T04:56:05.455Z,97
2022-10-18T04:57:05.456Z,97
2022-10-18T04:58:05.451Z,97
2022-10-18T04:59:05.435Z,97
2022-10-18T05:00:05.440Z,97
2022-10-18T05:01:05.428Z,97
2022-10-18T05:02:05.486Z,97
2022-10-18T05:03:05.483Z,97
2022-10-18T05:04:05.465Z,97
2022-10-18T05:05:07.065Z,97
2022-10-18T05:06:05.454Z,97
2022-10-18T05:07:05.483Z,97
2022-10-18T05:08:05.475Z,97
2022-10-18T05:09:05.474Z,97
2022-10-18T05:10:05.482Z,97
2022-10-18T05:11:05.511Z,97
2022-10-18T05:12:05.480Z,97
2022-10-18T05:13:05.489Z,97
2022-10-18T05:14:05.478Z,97
2022-10-18T05:15:05.476Z,97
2022-10-18T05:16:05.492Z,97
2022-10-18T05:17:05.524Z,97
2022-10-18T05:18:05.500Z,97
2022-10-18T05:19:05.500Z,97
2022-10-18T05:20:05.574Z,97
2022-10-18T05:21:05.484Z,97
2022-10-18T05:22:05.545Z,97
2022-10-18T05:23:05.529Z,97
2022-10-18T05:24:05.498Z,97
2022-10-18T05:25:05.505Z,97
2022-10-18T05:26:05.752Z,97
2022-10-18T05:27:05.503Z,97
2022-10-18T05:28:06.401Z,97
2022-10-18T05:29:05.642Z,97
2022-10-18T05:30:05.870Z,97
2022-10-18T05:31:05.519Z,97
2022-10-18T05:32:05.519Z,97
2022-10-18T05:33:05.567Z,97
2022-10-18T05:34:05.524Z,97
2022-10-18T05:35:05.535Z,97
2022-10-18T05:36:05.529Z,97
2022-10-18T05:37:05.561Z,97
2022-10-18T05:38:05.563Z,97
2022-10-18T05:39:05.587Z,97
2022-10-18T05:40:05.553Z,97
2022-10-18T05:41:05.547Z,97
2022-10-18T05:42:05.543Z,97
2022-10-18T05:43:05.606Z,97
2022-10-18T05:44:05.565Z,97
2022-10-18T05:45:05.569Z,97
2022-10-18T05:46:08.202Z,97
2022-10-18T05:47:05.578Z,97
2022-10-18T05:48:05.901Z,97
2022-10-18T05:49:05.570Z,97
2022-10-18T05:50:05.568Z,97
2022-10-18T05:51:05.566Z,97
2022-10-18T05:52:05.561Z,97
2022-10-18T05:53:11.805Z,97
2022-10-18T05:54:05.573Z,97
2022-10-18T05:55:05.601Z,97
2022-10-18T05:56:05.612Z,97
2022-10-18T05:57:05.611Z,97
2022-10-18T05:58:05.605Z,97
2022-10-18T05:59:05.591Z,97
2022-10-18T06:00:05.604Z,98
2022-10-18T06:01:05.584Z,98
2022-10-18T06:02:05.660Z,98
2022-10-18T06:03:05.619Z,98
2022-10-18T06:04:05.587Z,98
2022-10-18T06:05:05.593Z,98
2022-10-18T06:06:05.612Z,98
2022-10-18T06:07:05.611Z,98
2022-10-18T06:08:07.891Z,98
2022-10-18T06:09:05.618Z,98
2022-10-18T06:10:05.675Z,98
2022-10-18T06:11:05.634Z,98
2022-10-18T06:12:05.617Z,97
2022-10-18T06:13:05.663Z,97
2022-10-18T06:14:05.619Z,97
2022-10-18T06:15:05.621Z,97
2022-10-18T06:16:05.609Z,98
2022-10-18T06:17:05.642Z,98
2022-10-18T06:18:05.631Z,97
2022-10-18T06:19:05.645Z,98
2022-10-18T06:20:05.650Z,97
2022-10-18T06:21:05.645Z,98
2022-10-18T06:22:05.650Z,98
2022-10-18T06:23:05.660Z,98
2022-10-18T06:24:05.635Z,98
2022-10-18T06:25:05.665Z,98
2022-10-18T06:26:05.671Z,98
2022-10-18T06:28:06.824Z,98
2022-10-18T06:29:05.700Z,98
2022-10-18T06:30:05.668Z,98
2022-10-18T06:31:05.673Z,98
2022-10-18T06:32:05.649Z,98
2022-10-18T06:33:05.683Z,98
2022-10-18T06:34:05.691Z,98
2022-10-18T06:35:05.753Z,98
2022-10-18T06:36:05.676Z,98
2022-10-18T06:37:05.668Z,98
2022-10-18T06:38:05.686Z,97
2022-10-18T06:39:05.713Z,98
2022-10-18T06:40:05.707Z,97
2022-10-18T06:41:05.730Z,97
2022-10-18T06:42:05.697Z,97
2022-10-18T06:43:16.470Z,97
2022-10-18T06:44:05.698Z,97
2022-10-18T06:45:05.712Z,97
2022-10-18T06:46:05.713Z,97
2022-10-18T06:47:05.700Z,97
2022-10-18T06:48:05.786Z,97
2022-10-18T06:49:05.704Z,97
2022-10-18T06:50:05.715Z,97
2022-10-18T06:51:05.703Z,97
2022-10-18T06:52:05.698Z,97
2022-10-18T06:53:05.716Z,97
2022-10-18T06:54:17.220Z,97
2022-10-18T06:55:09.048Z,97
2022-10-18T06:56:05.705Z,97
2022-10-18T06:57:05.708Z,97
2022-10-18T06:58:05.749Z,97
2022-10-18T06:59:05.745Z,97
2022-10-18T07:00:05.736Z,96
2022-10-18T07:01:05.723Z,96
2022-10-18T07:02:05.793Z,96
2022-10-18T07:03:05.756Z,96
2022-10-18T07:04:05.734Z,96
2022-10-18T07:05:05.733Z,96
2022-10-18T07:06:05.721Z,96
2022-10-18T07:07:05.729Z,97
2022-10-18T07:08:05.749Z,96
2022-10-18T07:09:05.721Z,96
2022-10-18T07:10:05.734Z,96
2022-10-18T07:11:05.737Z,96
2022-10-18T07:12:05.752Z,95
2022-10-18T07:13:30.705Z,95
2022-10-18T07:14:05.739Z,93
2022-10-18T07:15:09.287Z,92
2022-10-18T07:16:05.836Z,92
2022-10-18T07:17:05.774Z,91
2022-10-18T07:18:05.791Z,92
2022-10-18T07:19:05.785Z,92
2022-10-18T07:20:05.758Z,91
2022-10-18T07:21:05.763Z,92
2022-10-18T07:22:05.778Z,92
2022-10-18T07:23:05.776Z,92
2022-10-18T07:24:05.784Z,93
2022-10-18T07:25:05.762Z,93
2022-10-18T07:26:05.771Z,92
2022-10-18T07:27:05.791Z,92
2022-10-18T07:28:05.791Z,91
2022-10-18T07:29:05.911Z,91
2022-10-18T07:30:05.812Z,91
2022-10-18T07:31:06.025Z,91
2022-10-18T07:32:05.813Z,90
2022-10-18T07:33:05.950Z,90
2022-10-18T07:34:05.813Z,89
2022-10-18T07:35:05.837Z,89
2022-10-18T07:36:05.841Z,89
2022-10-18T07:37:05.829Z,90
2022-10-18T07:38:05.858Z,89
2022-10-18T07:39:05.850Z,89
2022-10-18T07:40:05.839Z,90
2022-10-18T07:41:05.859Z,90
2022-10-18T07:42:05.855Z,90
2022-10-18T07:43:07.506Z,91
2022-10-18T07:44:05.861Z,91
2022-10-18T07:45:05.855Z,91
2022-10-18T07:46:05.850Z,91
2022-10-18T07:47:05.885Z,91
2022-10-18T07:48:05.869Z,91
2022-10-18T07:49:05.865Z,92
2022-10-18T07:50:05.881Z,93
2022-10-18T07:51:05.864Z,93
2022-10-18T07:52:05.871Z,93
2022-10-18T07:53:05.886Z,93
2022-10-18T07:54:05.887Z,92
2022-10-18T07:55:05.890Z,92
2022-10-18T07:56:07.222Z,92
2022-10-18T07:57:05.924Z,91
2022-10-18T07:58:05.913Z,92
2022-10-18T07:59:05.901Z,91
2022-10-18T08:00:05.928Z,92
2022-10-18T08:01:06.143Z,92
2022-10-18T08:02:05.999Z,92
2022-10-18T08:03:05.955Z,92
2022-10-18T08:04:07.866Z,92
2022-10-18T08:05:05.938Z,91
2022-10-18T08:06:05.942Z,91
2022-10-18T08:07:05.939Z,90
2022-10-18T08:08:07.245Z,91
2022-10-18T08:09:05.926Z,90
2022-10-18T08:10:05.943Z,91
2022-10-18T08:11:05.937Z,91
2022-10-18T08:12:05.944Z,90
2022-10-18T08:13:05.946Z,90
2022-10-18T08:14:05.933Z,90
2022-10-18T08:15:05.966Z,90
2022-10-18T08:16:05.933Z,89
2022-10-18T08:17:05.949Z,89
2022-10-18T08:18:05.988Z,89
2022-10-18T08:19:05.972Z,89
2022-10-18T08:20:11.985Z,88
2022-10-18T08:21:05.940Z,89
2022-10-18T08:22:05.963Z,90
2022-10-18T08:23:05.946Z,90
2022-10-18T08:24:05.997Z,90
2022-10-18T08:25:06.051Z,90
2022-10-18T08:26:05.959Z,90
2022-10-18T08:27:05.987Z,90
2022-10-18T08:28:05.984Z,90
2022-10-18T08:30:05.986Z,90
2022-10-18T08:31:06.004Z,90
2022-10-18T08:32:06.027Z,89
2022-10-18T08:33:06.009Z,87
2022-10-18T08:34:06.022Z,86
2022-10-18T08:35:06.965Z,86
2022-10-18T08:36:06.023Z,85
2022-10-18T08:37:06.006Z,87
2022-10-18T08:38:06.024Z,84
2022-10-18T08:39:05.986Z,85
2022-10-18T08:40:05.989Z,85
2022-10-18T08:41:05.987Z,84
2022-10-18T08:42:06.001Z,84
2022-10-18T08:43:06.014Z,85
2022-10-18T08:44:07.074Z,83
2022-10-18T08:45:12.483Z,85
2022-10-18T08:46:05.997Z,83
2022-10-18T08:47:06.022Z,83
2022-10-18T08:48:06.021Z,83
2022-10-18T08:49:06.006Z,83
2022-10-18T08:50:06.018Z,84
2022-10-18T08:51:06.038Z,82
2022-10-18T08:52:06.036Z,83
2022-10-18T08:53:06.035Z,83
2022-10-18T08:54:06.031Z,83
2022-10-18T08:55:06.015Z,82
2022-10-18T08:56:06.038Z,82
2022-10-18T08:57:06.016Z,82
2022-10-18T08:58:06.184Z,83
2022-10-18T08:59:06.030Z,82
2022-10-18T09:00:06.027Z,82
2022-10-18T09:01:06.019Z,83
2022-10-18T09:02:06.030Z,82
2022-10-18T09:03:06.102Z,83
2022-10-18T09:04:06.047Z,84
2022-10-18T09:05:06.073Z,83
2022-10-18T09:06:06.079Z,85
2022-10-18T09:07:06.072Z,84
2022-10-18T09:08:06.040Z,85
2022-10-18T09:09:06.034Z,85
2022-10-18T09:10:06.131Z,86
2022-10-18T09:11:06.057Z,85
2022-10-18T09:12:06.070Z,85
2022-10-18T09:13:06.058Z,85
2022-10-18T09:14:06.074Z,84
2022-10-18T09:15:06.068Z,85
2022-10-18T09:16:06.081Z,84
2022-10-18T09:17:06.076Z,85
2022-10-18T09:18:06.081Z,84
2022-10-18T09:19:06.086Z,84
2022-10-18T09:20:06.109Z,85
2022-10-18T09:21:06.111Z,83
2022-10-18T09:22:07.404Z,85
2022-10-18T09:23:06.143Z,85
2022-10-18T09:24:06.103Z,84
2022-10-18T09:25:06.120Z,84
2022-10-18T09:26:06.102Z,84
2022-10-18T09:27:06.125Z,84
2022-10-18T09:28:06.110Z,85
2022-10-18T09:29:06.186Z,84
2022-10-18T09:30:06.124Z,86
2022-10-18T09:31:06.101Z,87
2022-10-18T09:32:06.103Z,88
2022-10-18T09:33:06.119Z,88
2022-10-18T09:34:06.101Z,87
2022-10-18T09:35:06.117Z,89
2022-10-18T09:36:06.246Z,88
2022-10-18T09:37:06.118Z,88
2022-10-18T09:38:06.166Z,89
2022-10-18T09:39:06.150Z,89
2022-10-18T09:40:06.131Z,89
2022-10-18T09:41:06.133Z,90
2022-10-18T09:42:06.139Z,89
2022-10-18T09:43:06.133Z,89
2022-10-18T09:44:06.171Z,89
2022-10-18T09:45:06.141Z,89
2022-10-18T09:46:06.137Z,90
2022-10-18T09:47:06.146Z,89
2022-10-18T09:48:06.305Z,90
2022-10-18T09:49:06.163Z,90
2022-10-18T09:50:06.180Z,88
2022-10-18T09:51:06.174Z,89
2022-10-18T09:52:06.179Z,89
2022-10-18T09:53:06.183Z,90
2022-10-18T09:54:06.203Z,89
2022-10-18T09:55:06.220Z,89
2022-10-18T09:56:06.188Z,90
2022-10-18T09:57:06.223Z,90
2022-10-18T09:58:06.225Z,91
2022-10-18T09:59:06.198Z,89
2022-10-18T10:00:06.212Z,90
2022-10-18T10:01:06.212Z,90
2022-10-18T10:02:06.284Z,90
2022-10-18T10:03:06.231Z,90
2022-10-18T10:04:06.244Z,90
2022-10-18T10:05:06.267Z,89
2022-10-18T10:06:06.232Z,90
2022-10-18T10:07:06.214Z,90
2022-10-18T10:08:06.292Z,89
2022-10-18T10:09:06.234Z,89
2022-10-18T10:10:06.234Z,89
2022-10-18T10:11:06.251Z,90
2022-10-18T10:12:06.221Z,89
2022-10-18T10:13:06.248Z,90
2022-10-18T10:14:06.332Z,89
2022-10-18T10:15:06.238Z,90
2022-10-18T10:16:06.240Z,89
2022-10-18T10:17:06.246Z,89
2022-10-18T10:18:06.308Z,88
2022-10-18T10:19:06.264Z,88
2022-10-18T10:20:06.263Z,88
2022-10-18T10:21:06.264Z,89
2022-10-18T10:22:06.289Z,89
2022-10-18T10:23:06.294Z,90
2022-10-18T10:24:06.270Z,89
2022-10-18T10:25:06.261Z,87
2022-10-18T10:26:06.274Z,88
2022-10-18T10:27:06.279Z,89
2022-10-18T10:28:06.317Z,88
2022-10-18T10:29:09.945Z,89
2022-10-18T10:30:07.399Z,89
2022-10-18T10:31:06.273Z,88
2022-10-18T10:32:06.287Z,88
2022-10-18T10:33:06.296Z,88
2022-10-18T10:34:06.305Z,88
2022-10-18T10:35:06.542Z,88
2022-10-18T10:36:06.291Z,89
2022-10-18T10:37:06.290Z,88
2022-10-18T10:38:06.367Z,87
2022-10-18T10:39:06.309Z,88
2022-10-18T10:40:17.656Z,87
2022-10-18T10:41:06.311Z,88
2022-10-18T10:42:07.924Z,86
2022-10-18T10:43:13.120Z,88
2022-10-18T10:44:06.313Z,89
2022-10-18T10:45:06.307Z,88
2022-10-18T10:46:06.309Z,88
2022-10-18T10:47:06.308Z,88
2022-10-18T10:48:06.330Z,87
2022-10-18T10:49:38.970Z,86
2022-10-18T10:50:06.310Z,87
2022-10-18T10:51:06.294Z,87
2022-10-18T10:52:25.820Z,88
2022-10-18T10:53:06.321Z,88
2022-10-18T10:54:06.300Z,87
2022-10-18T10:55:23.488Z,87
2022-10-18T10:56:06.316Z,87
2022-10-18T10:57:06.321Z,87
2022-10-18T10:58:06.343Z,87
2022-10-18T10:59:06.368Z,86
2022-10-18T11:00:06.334Z,86
2022-10-18T11:01:07.830Z,86
2022-10-18T11:02:06.325Z,87
2022-10-18T11:03:24.068Z,86
2022-10-18T11:04:06.365Z,87
2022-10-18T11:05:06.327Z,87
2022-10-18T11:06:06.314Z,86
2022-10-18T11:07:06.327Z,86
2022-10-18T11:08:06.344Z,87
2022-10-18T11:09:06.359Z,88
2022-10-18T11:10:06.338Z,85
2022-10-18T11:11:06.348Z,85
2022-10-18T11:12:06.352Z,86
2022-10-18T11:13:06.350Z,86
2022-10-18T11:14:24.511Z,86
2022-10-18T11:15:06.396Z,86
2022-10-18T11:16:06.419Z,85
2022-10-18T11:17:08.038Z,87
2022-10-18T11:18:06.383Z,86
2022-10-18T11:19:06.347Z,87
2022-10-18T11:20:06.376Z,86
2022-10-18T11:21:06.378Z,86
2022-10-18T11:22:06.370Z,85
2022-10-18T11:23:06.411Z,85
2022-10-18T11:24:06.398Z,86
2022-10-18T11:25:06.400Z,85
2022-10-18T11:26:06.377Z,86
2022-10-18T11:27:06.387Z,86
2022-10-18T11:28:06.398Z,86
2022-10-18T11:29:06.415Z,86
2022-10-18T11:30:06.422Z,86
2022-10-18T11:31:06.434Z,85
2022-10-18T11:32:06.386Z,85
2022-10-18T11:33:06.404Z,85
2022-10-18T11:34:10.236Z,86
2022-10-18T11:35:06.399Z,85
2022-10-18T11:36:06.407Z,85
2022-10-18T11:38:06.427Z,86
2022-10-18T11:39:06.402Z,86
2022-10-18T11:40:06.428Z,86
2022-10-18T11:41:06.428Z,85
2022-10-18T11:42:06.422Z,85
2022-10-18T11:43:06.446Z,85
2022-10-18T11:44:06.449Z,85
2022-10-18T11:45:06.443Z,86
2022-10-18T11:46:06.438Z,86
2022-10-18T11:47:06.467Z,86
2022-10-18T11:48:06.469Z,86
2022-10-18T11:49:06.465Z,86
2022-10-18T11:50:06.436Z,86
2022-10-18T11:51:06.434Z,86
2022-10-18T11:52:08.898Z,86
2022-10-18T11:53:06.452Z,86
2022-10-18T11:54:06.444Z,86
2022-10-18T11:55:06.449Z,86
2022-10-18T11:56:06.456Z,86
2022-10-18T11:57:06.447Z,85
2022-10-18T11:58:06.471Z,85
2022-10-18T11:59:06.464Z,85
2022-10-18T12:00:06.440Z,84
2022-10-18T12:01:06.441Z,84
2022-10-18T12:02:06.453Z,85
2022-10-18T12:03:06.556Z,84
2022-10-18T12:04:06.488Z,84
2022-10-18T12:06:06.482Z,84
2022-10-18T12:07:06.469Z,84
2022-10-18T12:08:06.615Z,84
2022-10-18T12:09:06.478Z,84
2022-10-18T12:10:06.480Z,84
2022-10-18T12:11:06.946Z,85
2022-10-18T12:12:06.478Z,84
2022-10-18T12:13:06.489Z,85
2022-10-18T12:14:06.495Z,84
2022-10-18T12:15:06.486Z,84
2022-10-18T12:16:06.541Z,84
2022-10-18T12:17:39.230Z,84
2022-10-18T12:18:06.509Z,84
2022-10-18T12:19:06.532Z,84
2022-10-18T12:20:06.530Z,84
2022-10-18T12:21:06.516Z,84
2022-10-18T12:22:06.540Z,84
2022-10-18T12:23:06.521Z,84
2022-10-18T12:24:06.539Z,84
2022-10-18T12:25:06.525Z,84
2022-10-18T12:26:06.520Z,84
2022-10-18T12:27:06.521Z,84
2022-10-18T12:28:06.568Z,84
2022-10-18T12:29:06.596Z,84
2022-10-18T12:30:06.518Z,84
2022-10-18T12:31:06.533Z,84
2022-10-18T12:32:06.535Z,84
2022-10-18T12:33:23.445Z,84
2022-10-18T12:34:06.535Z,84
2022-10-18T12:35:06.547Z,84
2022-10-18T12:36:06.547Z,84
2022-10-18T12:37:06.559Z,84
2022-10-18T12:38:06.571Z,84
2022-10-18T12:39:06.545Z,84
2022-10-18T12:40:12.347Z,84
2022-10-18T12:41:06.548Z,84
2022-10-18T12:42:06.556Z,84
2022-10-18T12:43:06.593Z,85
2022-10-18T12:44:06.572Z,83
2022-10-18T12:45:06.578Z,83
2022-10-18T12:46:10.849Z,83
2022-10-18T12:47:06.571Z,83
2022-10-18T12:48:06.577Z,83
2022-10-18T12:49:06.589Z,84
2022-10-18T12:50:06.657Z,84
2022-10-18T12:51:06.610Z,83
2022-10-18T12:52:06.614Z,83
2022-10-18T12:53:06.613Z,83
2022-10-18T12:54:06.584Z,84
2022-10-18T12:55:06.598Z,83
2022-10-18T12:56:06.588Z,83
2022-10-18T12:57:06.603Z,83
2022-10-18T12:58:06.655Z,83
2022-10-18T12:59:06.606Z,83
2022-10-18T13:00:06.649Z,82
2022-10-18T13:01:06.673Z,83
2022-10-18T13:02:06.601Z,82
2022-10-18T13:03:06.638Z,83
2022-10-18T13:04:06.611Z,82
2022-10-18T13:05:12.286Z,83
2022-10-18T13:06:06.974Z,83
2022-10-18T13:07:06.634Z,83
2022-10-18T13:08:06.630Z,83
2022-10-18T13:09:06.616Z,83
2022-10-18T13:10:06.624Z,82
2022-10-18T13:11:06.612Z,83
2022-10-18T13:12:06.617Z,83
2022-10-18T13:13:19.319Z,83
2022-10-18T13:14:06.682Z,83
2022-10-18T13:15:21.051Z,83
2022-10-18T13:16:06.628Z,83
2022-10-18T13:17:06.623Z,83
2022-10-18T13:18:06.682Z,83
2022-10-18T13:19:06.653Z,83
2022-10-18T13:20:24.876Z,83
2022-10-18T13:21:06.669Z,83
2022-10-18T13:22:06.640Z,84
2022-10-18T13:23:06.747Z,84
2022-10-18T13:24:06.660Z,83
2022-10-18T13:25:06.669Z,84
2022-10-18T13:26:06.672Z,84
2022-10-18T13:27:24.262Z,83
2022-10-18T13:28:06.709Z,83
2022-10-18T13:29:06.761Z,83
2022-10-18T13:30:06.688Z,83
2022-10-18T13:31:06.704Z,83
2022-10-18T13:32:06.725Z,83
2022-10-18T13:33:06.678Z,83
2022-10-18T13:34:06.683Z,83
2022-10-18T13:35:06.683Z,84
2022-10-18T13:36:06.703Z,83
2022-10-18T13:37:06.693Z,84
2022-10-18T13:38:06.704Z,84
2022-10-18T13:39:06.704Z,85
2022-10-18T13:40:06.690Z,84
2022-10-18T13:41:06.689Z,84
2022-10-18T13:42:06.696Z,84
2022-10-18T13:43:06.710Z,85
2022-10-18T13:44:06.704Z,84
2022-10-18T13:45:06.699Z,85
2022-10-18T13:46:06.703Z,85
2022-10-18T13:47:06.993Z,85
2022-10-18T13:48:06.721Z,85
2022-10-18T13:49:06.705Z,85
2022-10-18T13:50:06.718Z,85
2022-10-18T13:51:06.698Z,85
2022-10-18T13:52:06.716Z,85
2022-10-18T13:53:06.731Z,85
2022-10-18T13:54:06.717Z,85
2022-10-18T13:55:06.741Z,85
2022-10-18T13:56:06.726Z,85
2022-10-18T13:57:06.726Z,86
2022-10-18T13:58:06.722Z,86
2022-10-18T13:59:14.233Z,86
2022-10-18T14:00:06.752Z,86
2022-10-18T14:01:06.794Z,87
2022-10-18T14:02:06.770Z,87
2022-10-18T14:03:10.109Z,88
2022-10-18T14:04:06.730Z,88
2022-10-18T14:05:23.358Z,88
2022-10-18T14:06:06.766Z,88
2022-10-18T14:07:06.721Z,88
2022-10-18T14:08:10.280Z,88
2022-10-18T14:09:09.770Z,89
2022-10-18T14:10:06.730Z,90
2022-10-18T14:11:06.757Z,90
2022-10-18T14:12:06.780Z,90
2022-10-18T14:13:06.748Z,91
2022-10-18T14:14:06.741Z,91
2022-10-18T14:15:06.750Z,92
2022-10-18T14:16:06.755Z,92
2022-10-18T14:17:06.742Z,92
2022-10-18T14:18:06.795Z,92
2022-10-18T14:19:06.758Z,92
2022-10-18T14:20:06.753Z,92